sensor_id;sensor_type;location;lat;lon;timestamp;temperature;humidity
3136;DHT22;1578;47.658;9.922;2023-04-19T00:00:59;8.80;66.80
3136;DHT22;1578;47.658;9.922;2023-04-19T00:03:26;8.80;66.80
3136;DHT22;1578;47.658;9.922;2023-04-19T00:05:52;8.80;67.60
3136;DHT22;1578;47.658;9.922;2023-04-19T00:08:23;8.80;68.60
3136;DHT22;1578;47.658;9.922;2023-04-19T00:10:49;8.70;68.30
3136;DHT22;1578;47.658;9.922;2023-04-19T00:13:15;8.70;67.40
3136;DHT22;1578;47.658;9.922;2023-04-19T00:15:41;8.70;67.50
3136;DHT22;1578;47.658;9.922;2023-04-19T00:18:06;8.70;67.10
3136;DHT22;1578;47.658;9.922;2023-04-19T00:20:32;8.70;68.70
3136;DHT22;1578;47.658;9.922;2023-04-19T00:22:57;8.70;67.60
3136;DHT22;1578;47.658;9.922;2023-04-19T00:25:23;8.80;67.70
3136;DHT22;1578;47.658;9.922;2023-04-19T00:27:49;8.80;67.40
3136;DHT22;1578;47.658;9.922;2023-04-19T00:30:15;8.70;66.70
3136;DHT22;1578;47.658;9.922;2023-04-19T00:32:40;8.70;68.30
3136;DHT22;1578;47.658;9.922;2023-04-19T00:35:06;8.70;67.60
3136;DHT22;1578;47.658;9.922;2023-04-19T00:37:32;8.70;66.80
3136;DHT22;1578;47.658;9.922;2023-04-19T00:39:57;8.50;68.60
3136;DHT22;1578;47.658;9.922;2023-04-19T00:42:23;8.50;68.60
3136;DHT22;1578;47.658;9.922;2023-04-19T00:44:48;8.40;69.30
3136;DHT22;1578;47.658;9.922;2023-04-19T00:47:14;8.40;70.20
3136;DHT22;1578;47.658;9.922;2023-04-19T00:49:40;8.30;70.10
3136;DHT22;1578;47.658;9.922;2023-04-19T00:52:06;8.30;71.10
3136;DHT22;1578;47.658;9.922;2023-04-19T00:54:32;8.30;70.00
3136;DHT22;1578;47.658;9.922;2023-04-19T00:56:58;8.30;69.70
3136;DHT22;1578;47.658;9.922;2023-04-19T00:59:24;8.20;71.50
3136;DHT22;1578;47.658;9.922;2023-04-19T01:01:50;8.10;73.60
3136;DHT22;1578;47.658;9.922;2023-04-19T01:04:16;8.10;73.60
3136;DHT22;1578;47.658;9.922;2023-04-19T01:06:41;8.10;74.30
3136;DHT22;1578;47.658;9.922;2023-04-19T01:09:07;8.10;74.00
3136;DHT22;1578;47.658;9.922;2023-04-19T01:11:33;8.10;74.70
3136;DHT22;1578;47.658;9.922;2023-04-19T01:13:59;8.20;74.40
3136;DHT22;1578;47.658;9.922;2023-04-19T01:16:25;8.30;73.70
3136;DHT22;1578;47.658;9.922;2023-04-19T01:18:51;8.40;73.80
3136;DHT22;1578;47.658;9.922;2023-04-19T01:21:17;8.40;73.80
3136;DHT22;1578;47.658;9.922;2023-04-19T01:23:43;8.40;73.80
3136;DHT22;1578;47.658;9.922;2023-04-19T01:26:09;8.40;73.80
3136;DHT22;1578;47.658;9.922;2023-04-19T01:28:34;8.50;74.90
3136;DHT22;1578;47.658;9.922;2023-04-19T01:31:00;8.50;74.10
3136;DHT22;1578;47.658;9.922;2023-04-19T01:33:26;8.70;73.30
3136;DHT22;1578;47.658;9.922;2023-04-19T01:35:51;8.70;72.30
3136;DHT22;1578;47.658;9.922;2023-04-19T01:38:17;8.80;71.90
3136;DHT22;1578;47.658;9.922;2023-04-19T01:40:43;8.80;70.80
3136;DHT22;1578;47.658;9.922;2023-04-19T01:43:13;8.80;71.80
3136;DHT22;1578;47.658;9.922;2023-04-19T01:45:39;8.80;71.70
3136;DHT22;1578;47.658;9.922;2023-04-19T01:48:05;8.90;71.10
3136;DHT22;1578;47.658;9.922;2023-04-19T01:50:31;8.90;71.30
3136;DHT22;1578;47.658;9.922;2023-04-19T01:52:58;8.90;71.50
3136;DHT22;1578;47.658;9.922;2023-04-19T01:55:24;8.90;70.20
3136;DHT22;1578;47.658;9.922;2023-04-19T01:57:49;8.90;69.70
3136;DHT22;1578;47.658;9.922;2023-04-19T02:00:17;9.00;69.60
3136;DHT22;1578;47.658;9.922;2023-04-19T02:02:43;8.90;70.10
3136;DHT22;1578;47.658;9.922;2023-04-19T02:05:09;9.00;68.60
3136;DHT22;1578;47.658;9.922;2023-04-19T02:07:35;9.00;67.60
3136;DHT22;1578;47.658;9.922;2023-04-19T02:10:01;9.00;68.20
3136;DHT22;1578;47.658;9.922;2023-04-19T02:12:28;9.00;67.90
3136;DHT22;1578;47.658;9.922;2023-04-19T02:14:58;8.90;67.80
3136;DHT22;1578;47.658;9.922;2023-04-19T02:17:26;8.90;67.20
3136;DHT22;1578;47.658;9.922;2023-04-19T02:19:52;9.00;67.20
3136;DHT22;1578;47.658;9.922;2023-04-19T02:22:18;9.00;67.80
3136;DHT22;1578;47.658;9.922;2023-04-19T02:24:44;9.00;68.10
3136;DHT22;1578;47.658;9.922;2023-04-19T02:27:10;9.00;67.50
3136;DHT22;1578;47.658;9.922;2023-04-19T02:29:36;8.90;67.20
3136;DHT22;1578;47.658;9.922;2023-04-19T02:32:02;9.00;65.60
3136;DHT22;1578;47.658;9.922;2023-04-19T02:34:30;9.00;66.80
3136;DHT22;1578;47.658;9.922;2023-04-19T02:36:56;9.00;66.70
3136;DHT22;1578;47.658;9.922;2023-04-19T02:39:22;9.00;66.20
3136;DHT22;1578;47.658;9.922;2023-04-19T02:41:48;9.00;66.20
3136;DHT22;1578;47.658;9.922;2023-04-19T02:44:13;9.00;65.20
3136;DHT22;1578;47.658;9.922;2023-04-19T02:46:39;9.10;65.70
3136;DHT22;1578;47.658;9.922;2023-04-19T02:49:05;9.00;65.20
3136;DHT22;1578;47.658;9.922;2023-04-19T02:51:30;9.00;64.60
3136;DHT22;1578;47.658;9.922;2023-04-19T02:53:56;9.10;64.50
3136;DHT22;1578;47.658;9.922;2023-04-19T02:56:22;9.10;64.10
3136;DHT22;1578;47.658;9.922;2023-04-19T02:58:47;9.10;64.20
3136;DHT22;1578;47.658;9.922;2023-04-19T03:01:13;9.10;63.50
3136;DHT22;1578;47.658;9.922;2023-04-19T03:03:38;9.00;63.40
3136;DHT22;1578;47.658;9.922;2023-04-19T03:06:04;9.00;64.70
3136;DHT22;1578;47.658;9.922;2023-04-19T03:08:30;9.00;65.40
3136;DHT22;1578;47.658;9.922;2023-04-19T03:10:55;8.90;64.50
3136;DHT22;1578;47.658;9.922;2023-04-19T03:13:21;9.00;64.70
3136;DHT22;1578;47.658;9.922;2023-04-19T03:15:46;9.00;63.60
3136;DHT22;1578;47.658;9.922;2023-04-19T03:18:13;9.00;63.00
3136;DHT22;1578;47.658;9.922;2023-04-19T03:20:38;9.10;63.60
3136;DHT22;1578;47.658;9.922;2023-04-19T03:23:04;9.10;63.40
3136;DHT22;1578;47.658;9.922;2023-04-19T03:25:30;9.10;62.90
3136;DHT22;1578;47.658;9.922;2023-04-19T03:27:56;9.10;62.00
3136;DHT22;1578;47.658;9.922;2023-04-19T03:30:22;9.10;63.60
3136;DHT22;1578;47.658;9.922;2023-04-19T03:32:47;9.10;63.70
3136;DHT22;1578;47.658;9.922;2023-04-19T03:35:13;9.00;63.90
3136;DHT22;1578;47.658;9.922;2023-04-19T03:37:38;9.00;63.20
3136;DHT22;1578;47.658;9.922;2023-04-19T03:40:05;8.90;64.20
3136;DHT22;1578;47.658;9.922;2023-04-19T03:42:30;9.10;64.70
3136;DHT22;1578;47.658;9.922;2023-04-19T03:44:57;9.00;62.50
3136;DHT22;1578;47.658;9.922;2023-04-19T03:47:23;9.00;62.70
3136;DHT22;1578;47.658;9.922;2023-04-19T03:49:48;9.00;63.60
3136;DHT22;1578;47.658;9.922;2023-04-19T03:52:14;9.00;62.10
3136;DHT22;1578;47.658;9.922;2023-04-19T03:54:39;9.00;62.50
3136;DHT22;1578;47.658;9.922;2023-04-19T03:57:05;9.00;62.20
3136;DHT22;1578;47.658;9.922;2023-04-19T03:59:31;9.00;61.00
3136;DHT22;1578;47.658;9.922;2023-04-19T04:01:56;8.90;62.60
3136;DHT22;1578;47.658;9.922;2023-04-19T04:04:22;8.90;63.10
3136;DHT22;1578;47.658;9.922;2023-04-19T04:06:47;8.90;63.60
3136;DHT22;1578;47.658;9.922;2023-04-19T04:09:13;8.90;62.60
3136;DHT22;1578;47.658;9.922;2023-04-19T04:11:38;8.90;61.70
3136;DHT22;1578;47.658;9.922;2023-04-19T04:14:06;8.90;62.60
3136;DHT22;1578;47.658;9.922;2023-04-19T04:16:31;8.90;62.70
3136;DHT22;1578;47.658;9.922;2023-04-19T04:18:57;8.90;63.50
3136;DHT22;1578;47.658;9.922;2023-04-19T04:21:24;8.80;65.00
3136;DHT22;1578;47.658;9.922;2023-04-19T04:23:51;8.80;64.50
3136;DHT22;1578;47.658;9.922;2023-04-19T04:26:17;8.80;64.80
3136;DHT22;1578;47.658;9.922;2023-04-19T04:28:46;8.90;63.90
3136;DHT22;1578;47.658;9.922;2023-04-19T04:31:11;9.00;63.60
3136;DHT22;1578;47.658;9.922;2023-04-19T04:33:37;8.90;63.20
3136;DHT22;1578;47.658;9.922;2023-04-19T04:36:03;8.90;63.40
3136;DHT22;1578;47.658;9.922;2023-04-19T04:38:29;8.90;65.10
3136;DHT22;1578;47.658;9.922;2023-04-19T04:40:55;9.00;66.80
3136;DHT22;1578;47.658;9.922;2023-04-19T04:43:22;8.90;65.10
3136;DHT22;1578;47.658;9.922;2023-04-19T04:45:48;9.00;64.40
3136;DHT22;1578;47.658;9.922;2023-04-19T04:48:14;9.10;64.90
3136;DHT22;1578;47.658;9.922;2023-04-19T04:50:39;9.20;65.40
3136;DHT22;1578;47.658;9.922;2023-04-19T04:53:05;9.20;63.90
3136;DHT22;1578;47.658;9.922;2023-04-19T04:55:31;9.20;62.40
3136;DHT22;1578;47.658;9.922;2023-04-19T04:57:57;9.10;62.40
3136;DHT22;1578;47.658;9.922;2023-04-19T05:00:23;9.10;64.90
3136;DHT22;1578;47.658;9.922;2023-04-19T05:02:48;9.10;63.70
3136;DHT22;1578;47.658;9.922;2023-04-19T05:05:14;9.00;63.50
3136;DHT22;1578;47.658;9.922;2023-04-19T05:07:40;9.10;64.80
3136;DHT22;1578;47.658;9.922;2023-04-19T05:10:07;9.10;63.80
3136;DHT22;1578;47.658;9.922;2023-04-19T05:12:33;9.20;62.70
3136;DHT22;1578;47.658;9.922;2023-04-19T05:14:58;9.40;63.60
3136;DHT22;1578;47.658;9.922;2023-04-19T05:17:24;9.50;61.30
3136;DHT22;1578;47.658;9.922;2023-04-19T05:19:50;9.50;60.90
3136;DHT22;1578;47.658;9.922;2023-04-19T05:22:16;9.50;60.90
3136;DHT22;1578;47.658;9.922;2023-04-19T05:24:41;9.60;60.30
3136;DHT22;1578;47.658;9.922;2023-04-19T05:27:07;9.50;60.40
3136;DHT22;1578;47.658;9.922;2023-04-19T05:29:34;9.60;61.20
3136;DHT22;1578;47.658;9.922;2023-04-19T05:31:59;9.70;60.90
3136;DHT22;1578;47.658;9.922;2023-04-19T05:34:25;9.70;60.90
3136;DHT22;1578;47.658;9.922;2023-04-19T05:36:51;9.70;57.00
3136;DHT22;1578;47.658;9.922;2023-04-19T05:39:16;9.70;54.90
3136;DHT22;1578;47.658;9.922;2023-04-19T05:41:42;9.80;57.10
3136;DHT22;1578;47.658;9.922;2023-04-19T05:44:08;9.90;56.70
3136;DHT22;1578;47.658;9.922;2023-04-19T05:46:33;10.00;54.00
3136;DHT22;1578;47.658;9.922;2023-04-19T05:48:59;10.00;54.30
3136;DHT22;1578;47.658;9.922;2023-04-19T05:51:25;10.00;51.20
3136;DHT22;1578;47.658;9.922;2023-04-19T05:53:51;10.00;51.80
3136;DHT22;1578;47.658;9.922;2023-04-19T05:56:17;9.90;51.70
3136;DHT22;1578;47.658;9.922;2023-04-19T05:58:43;10.10;52.50
3136;DHT22;1578;47.658;9.922;2023-04-19T06:01:08;10.10;51.80
3136;DHT22;1578;47.658;9.922;2023-04-19T06:03:35;10.20;51.80
3136;DHT22;1578;47.658;9.922;2023-04-19T06:06:00;10.20;51.50
3136;DHT22;1578;47.658;9.922;2023-04-19T06:08:26;10.40;51.30
3136;DHT22;1578;47.658;9.922;2023-04-19T06:10:52;10.40;46.70
3136;DHT22;1578;47.658;9.922;2023-04-19T06:13:19;10.30;45.70
3136;DHT22;1578;47.658;9.922;2023-04-19T06:15:45;10.30;45.40
3136;DHT22;1578;47.658;9.922;2023-04-19T06:18:11;10.10;44.40
3136;DHT22;1578;47.658;9.922;2023-04-19T06:20:37;10.10;45.90
3136;DHT22;1578;47.658;9.922;2023-04-19T06:23:03;10.00;45.30
3136;DHT22;1578;47.658;9.922;2023-04-19T06:25:29;9.90;45.80
3136;DHT22;1578;47.658;9.922;2023-04-19T06:27:55;9.90;46.80
3136;DHT22;1578;47.658;9.922;2023-04-19T06:30:21;9.90;47.40
3136;DHT22;1578;47.658;9.922;2023-04-19T06:32:46;9.80;46.90
3136;DHT22;1578;47.658;9.922;2023-04-19T06:35:12;9.90;47.40
3136;DHT22;1578;47.658;9.922;2023-04-19T06:37:38;10.00;46.60
3136;DHT22;1578;47.658;9.922;2023-04-19T06:40:04;10.00;44.10
3136;DHT22;1578;47.658;9.922;2023-04-19T06:42:35;10.00;46.40
3136;DHT22;1578;47.658;9.922;2023-04-19T06:45:00;10.10;42.80
3136;DHT22;1578;47.658;9.922;2023-04-19T06:47:27;10.20;43.40
3136;DHT22;1578;47.658;9.922;2023-04-19T06:49:53;10.40;46.90
3136;DHT22;1578;47.658;9.922;2023-04-19T06:52:21;10.20;42.60
3136;DHT22;1578;47.658;9.922;2023-04-19T06:54:48;10.10;43.30
3136;DHT22;1578;47.658;9.922;2023-04-19T06:57:15;10.10;41.90
3136;DHT22;1578;47.658;9.922;2023-04-19T06:59:41;10.20;44.40
3136;DHT22;1578;47.658;9.922;2023-04-19T07:02:07;10.20;42.00
3136;DHT22;1578;47.658;9.922;2023-04-19T07:04:32;10.40;43.80
3136;DHT22;1578;47.658;9.922;2023-04-19T07:06:58;10.40;43.00
3136;DHT22;1578;47.658;9.922;2023-04-19T07:09:24;10.60;40.90
3136;DHT22;1578;47.658;9.922;2023-04-19T07:11:52;10.70;40.60
3136;DHT22;1578;47.658;9.922;2023-04-19T07:14:17;10.80;40.40
3136;DHT22;1578;47.658;9.922;2023-04-19T07:16:46;10.80;39.90
3136;DHT22;1578;47.658;9.922;2023-04-19T07:19:12;10.80;40.80
3136;DHT22;1578;47.658;9.922;2023-04-19T07:21:38;11.10;41.80
3136;DHT22;1578;47.658;9.922;2023-04-19T07:24:07;11.10;37.90
3136;DHT22;1578;47.658;9.922;2023-04-19T07:26:33;11.10;42.90
3136;DHT22;1578;47.658;9.922;2023-04-19T07:29:00;11.20;41.00
3136;DHT22;1578;47.658;9.922;2023-04-19T07:31:26;11.10;43.90
3136;DHT22;1578;47.658;9.922;2023-04-19T07:33:52;11.00;41.40
3136;DHT22;1578;47.658;9.922;2023-04-19T07:36:18;11.00;41.70
3136;DHT22;1578;47.658;9.922;2023-04-19T07:38:44;11.00;38.40
3136;DHT22;1578;47.658;9.922;2023-04-19T07:41:10;11.00;37.60
3136;DHT22;1578;47.658;9.922;2023-04-19T07:43:35;11.00;38.60
3136;DHT22;1578;47.658;9.922;2023-04-19T07:46:02;11.00;42.70
3136;DHT22;1578;47.658;9.922;2023-04-19T07:48:33;11.00;42.60
3136;DHT22;1578;47.658;9.922;2023-04-19T07:51:10;11.00;41.20
3136;DHT22;1578;47.658;9.922;2023-04-19T07:53:36;11.10;40.00
3136;DHT22;1578;47.658;9.922;2023-04-19T07:56:02;11.00;37.60
3136;DHT22;1578;47.658;9.922;2023-04-19T07:58:28;11.20;40.40
3136;DHT22;1578;47.658;9.922;2023-04-19T08:00:53;11.20;38.70
3136;DHT22;1578;47.658;9.922;2023-04-19T08:03:19;11.30;36.00
3136;DHT22;1578;47.658;9.922;2023-04-19T08:05:45;11.60;37.00
3136;DHT22;1578;47.658;9.922;2023-04-19T08:08:10;11.80;35.80
3136;DHT22;1578;47.658;9.922;2023-04-19T08:10:36;11.90;36.40
3136;DHT22;1578;47.658;9.922;2023-04-19T08:13:02;11.80;35.20
3136;DHT22;1578;47.658;9.922;2023-04-19T08:15:27;11.80;34.40
3136;DHT22;1578;47.658;9.922;2023-04-19T08:17:53;12.00;33.90
3136;DHT22;1578;47.658;9.922;2023-04-19T08:20:19;12.10;33.80
3136;DHT22;1578;47.658;9.922;2023-04-19T08:22:46;12.40;32.50
3136;DHT22;1578;47.658;9.922;2023-04-19T08:25:12;12.70;28.30
3136;DHT22;1578;47.658;9.922;2023-04-19T08:27:37;12.80;27.50
3136;DHT22;1578;47.658;9.922;2023-04-19T08:30:03;12.80;26.60
3136;DHT22;1578;47.658;9.922;2023-04-19T08:32:29;12.80;26.30
3136;DHT22;1578;47.658;9.922;2023-04-19T08:34:55;12.70;26.00
3136;DHT22;1578;47.658;9.922;2023-04-19T08:37:21;12.80;28.30
3136;DHT22;1578;47.658;9.922;2023-04-19T08:39:47;12.90;30.00
3136;DHT22;1578;47.658;9.922;2023-04-19T08:42:12;13.10;27.90
3136;DHT22;1578;47.658;9.922;2023-04-19T08:44:38;13.20;29.50
3136;DHT22;1578;47.658;9.922;2023-04-19T08:47:05;13.20;27.10
3136;DHT22;1578;47.658;9.922;2023-04-19T08:49:34;13.20;29.00
3136;DHT22;1578;47.658;9.922;2023-04-19T08:52:01;13.00;28.00
3136;DHT22;1578;47.658;9.922;2023-04-19T08:54:30;12.90;30.90
3136;DHT22;1578;47.658;9.922;2023-04-19T08:56:58;12.80;28.10
3136;DHT22;1578;47.658;9.922;2023-04-19T08:59:28;12.50;33.20
3136;DHT22;1578;47.658;9.922;2023-04-19T09:01:55;12.50;30.50
3136;DHT22;1578;47.658;9.922;2023-04-19T09:04:24;12.70;35.50
3136;DHT22;1578;47.658;9.922;2023-04-19T09:06:50;12.80;30.20
3136;DHT22;1578;47.658;9.922;2023-04-19T09:11:42;13.10;26.20
3136;DHT22;1578;47.658;9.922;2023-04-19T09:14:14;12.80;32.80
3136;DHT22;1578;47.658;9.922;2023-04-19T09:16:40;12.60;32.90
3136;DHT22;1578;47.658;9.922;2023-04-19T09:19:06;12.60;36.70
3136;DHT22;1578;47.658;9.922;2023-04-19T09:21:34;12.70;36.00
3136;DHT22;1578;47.658;9.922;2023-04-19T09:24:01;12.60;32.20
3136;DHT22;1578;47.658;9.922;2023-04-19T09:26:27;12.70;36.60
3136;DHT22;1578;47.658;9.922;2023-04-19T09:29:00;12.70;30.40
3136;DHT22;1578;47.658;9.922;2023-04-19T09:31:28;12.60;34.50
3136;DHT22;1578;47.658;9.922;2023-04-19T09:33:54;12.80;36.40
3136;DHT22;1578;47.658;9.922;2023-04-19T09:36:32;12.80;34.30
3136;DHT22;1578;47.658;9.922;2023-04-19T09:38:58;13.00;34.40
3136;DHT22;1578;47.658;9.922;2023-04-19T09:41:25;12.70;30.80
3136;DHT22;1578;47.658;9.922;2023-04-19T09:43:51;12.70;37.90
3136;DHT22;1578;47.658;9.922;2023-04-19T09:54:15;12.40;38.60
3136;DHT22;1578;47.658;9.922;2023-04-19T09:56:41;12.30;35.40
3136;DHT22;1578;47.658;9.922;2023-04-19T09:59:08;12.30;36.70
3136;DHT22;1578;47.658;9.922;2023-04-19T10:01:43;12.10;41.70
3136;DHT22;1578;47.658;9.922;2023-04-19T10:04:10;12.40;42.60
3136;DHT22;1578;47.658;9.922;2023-04-19T10:06:38;12.60;34.50
3136;DHT22;1578;47.658;9.922;2023-04-19T10:09:04;12.70;35.00
3136;DHT22;1578;47.658;9.922;2023-04-19T10:11:35;12.80;35.40
3136;DHT22;1578;47.658;9.922;2023-04-19T10:14:04;13.00;32.80
3136;DHT22;1578;47.658;9.922;2023-04-19T10:16:31;13.10;36.40
3136;DHT22;1578;47.658;9.922;2023-04-19T10:18:57;13.10;34.10
3136;DHT22;1578;47.658;9.922;2023-04-19T10:21:26;12.70;34.60
3136;DHT22;1578;47.658;9.922;2023-04-19T10:23:53;12.30;34.20
3136;DHT22;1578;47.658;9.922;2023-04-19T10:26:19;12.40;37.90
3136;DHT22;1578;47.658;9.922;2023-04-19T10:28:46;12.60;41.60
3136;DHT22;1578;47.658;9.922;2023-04-19T10:31:12;12.80;38.30
3136;DHT22;1578;47.658;9.922;2023-04-19T10:33:39;12.70;39.10
3136;DHT22;1578;47.658;9.922;2023-04-19T10:36:10;13.00;40.50
3136;DHT22;1578;47.658;9.922;2023-04-19T10:38:41;13.50;39.30
3136;DHT22;1578;47.658;9.922;2023-04-19T10:41:14;14.00;30.10
3136;DHT22;1578;47.658;9.922;2023-04-19T10:44:24;14.40;27.10
3136;DHT22;1578;47.658;9.922;2023-04-19T10:49:04;14.70;29.40
3136;DHT22;1578;47.658;9.922;2023-04-19T10:51:38;15.10;27.90
3136;DHT22;1578;47.658;9.922;2023-04-19T10:54:08;14.80;26.70
3136;DHT22;1578;47.658;9.922;2023-04-19T11:01:44;14.50;29.80
3136;DHT22;1578;47.658;9.922;2023-04-19T11:09:44;13.70;28.20
3136;DHT22;1578;47.658;9.922;2023-04-19T11:12:14;13.20;30.40
3136;DHT22;1578;47.658;9.922;2023-04-19T11:14:47;13.40;31.90
3136;DHT22;1578;47.658;9.922;2023-04-19T11:17:18;13.20;28.70
3136;DHT22;1578;47.658;9.922;2023-04-19T11:22:17;13.00;31.40
3136;DHT22;1578;47.658;9.922;2023-04-19T11:24:45;13.00;33.80
3136;DHT22;1578;47.658;9.922;2023-04-19T11:27:12;13.00;33.10
3136;DHT22;1578;47.658;9.922;2023-04-19T11:29:38;13.00;34.00
3136;DHT22;1578;47.658;9.922;2023-04-19T11:32:04;13.00;29.90
3136;DHT22;1578;47.658;9.922;2023-04-19T11:34:40;13.10;34.60
3136;DHT22;1578;47.658;9.922;2023-04-19T11:37:06;13.20;32.40
3136;DHT22;1578;47.658;9.922;2023-04-19T11:39:31;13.20;27.90
3136;DHT22;1578;47.658;9.922;2023-04-19T11:41:57;12.60;33.20
3136;DHT22;1578;47.658;9.922;2023-04-19T11:44:24;12.30;33.10
3136;DHT22;1578;47.658;9.922;2023-04-19T11:47:00;12.30;33.50
3136;DHT22;1578;47.658;9.922;2023-04-19T11:49:28;12.40;33.10
3136;DHT22;1578;47.658;9.922;2023-04-19T11:51:55;12.50;34.80
3136;DHT22;1578;47.658;9.922;2023-04-19T11:54:22;12.60;38.10
3136;DHT22;1578;47.658;9.922;2023-04-19T11:59:23;12.50;35.70
3136;DHT22;1578;47.658;9.922;2023-04-19T12:01:49;12.50;37.00
3136;DHT22;1578;47.658;9.922;2023-04-19T12:04:14;12.40;36.60
3136;DHT22;1578;47.658;9.922;2023-04-19T12:06:40;12.20;35.30
3136;DHT22;1578;47.658;9.922;2023-04-19T12:09:06;12.40;39.20
3136;DHT22;1578;47.658;9.922;2023-04-19T12:11:45;12.10;38.90
3136;DHT22;1578;47.658;9.922;2023-04-19T12:14:12;12.20;39.00
3136;DHT22;1578;47.658;9.922;2023-04-19T12:16:38;12.30;39.10
3136;DHT22;1578;47.658;9.922;2023-04-19T12:19:14;12.50;38.80
3136;DHT22;1578;47.658;9.922;2023-04-19T12:21:40;12.80;36.40
3136;DHT22;1578;47.658;9.922;2023-04-19T12:24:06;12.90;34.70
3136;DHT22;1578;47.658;9.922;2023-04-19T12:26:32;12.90;35.70
3136;DHT22;1578;47.658;9.922;2023-04-19T12:29:00;12.80;34.60
3136;DHT22;1578;47.658;9.922;2023-04-19T12:31:26;13.10;35.80
3136;DHT22;1578;47.658;9.922;2023-04-19T12:33:52;13.30;33.60
3136;DHT22;1578;47.658;9.922;2023-04-19T12:36:18;13.20;35.10
3136;DHT22;1578;47.658;9.922;2023-04-19T12:38:43;12.90;37.60
3136;DHT22;1578;47.658;9.922;2023-04-19T12:41:09;12.50;39.30
3136;DHT22;1578;47.658;9.922;2023-04-19T12:43:35;12.30;43.20
3136;DHT22;1578;47.658;9.922;2023-04-19T12:46:01;12.50;41.00
3136;DHT22;1578;47.658;9.922;2023-04-19T12:48:27;12.60;36.30
3136;DHT22;1578;47.658;9.922;2023-04-19T12:50:53;12.70;40.00
3136;DHT22;1578;47.658;9.922;2023-04-19T12:53:20;12.90;40.60
3136;DHT22;1578;47.658;9.922;2023-04-19T12:55:48;12.70;39.50
3136;DHT22;1578;47.658;9.922;2023-04-19T12:58:15;12.60;39.40
3136;DHT22;1578;47.658;9.922;2023-04-19T13:00:42;12.70;43.00
3136;DHT22;1578;47.658;9.922;2023-04-19T13:03:07;12.80;37.70
3136;DHT22;1578;47.658;9.922;2023-04-19T13:05:33;13.00;36.20
3136;DHT22;1578;47.658;9.922;2023-04-19T13:07:59;13.10;37.30
3136;DHT22;1578;47.658;9.922;2023-04-19T13:10:25;13.20;33.80
3136;DHT22;1578;47.658;9.922;2023-04-19T13:12:51;13.30;35.10
3136;DHT22;1578;47.658;9.922;2023-04-19T13:15:16;13.50;35.30
3136;DHT22;1578;47.658;9.922;2023-04-19T13:17:42;13.80;32.00
3136;DHT22;1578;47.658;9.922;2023-04-19T13:20:08;14.00;29.80
3136;DHT22;1578;47.658;9.922;2023-04-19T13:22:34;13.90;26.90
3136;DHT22;1578;47.658;9.922;2023-04-19T13:25:00;14.20;27.70
3136;DHT22;1578;47.658;9.922;2023-04-19T13:27:26;14.10;24.80
3136;DHT22;1578;47.658;9.922;2023-04-19T13:29:54;13.60;28.70
3136;DHT22;1578;47.658;9.922;2023-04-19T13:32:20;13.90;29.10
3136;DHT22;1578;47.658;9.922;2023-04-19T13:34:46;14.30;29.30
3136;DHT22;1578;47.658;9.922;2023-04-19T13:37:12;14.30;27.10
3136;DHT22;1578;47.658;9.922;2023-04-19T13:39:39;14.30;28.80
3136;DHT22;1578;47.658;9.922;2023-04-19T13:42:05;14.40;25.00
3136;DHT22;1578;47.658;9.922;2023-04-19T13:44:31;14.30;26.20
3136;DHT22;1578;47.658;9.922;2023-04-19T13:46:56;14.10;23.90
3136;DHT22;1578;47.658;9.922;2023-04-19T13:49:22;13.40;26.80
3136;DHT22;1578;47.658;9.922;2023-04-19T13:52:06;13.40;25.70
3136;DHT22;1578;47.658;9.922;2023-04-19T13:54:33;13.60;28.40
3136;DHT22;1578;47.658;9.922;2023-04-19T13:56:58;13.70;28.30
3136;DHT22;1578;47.658;9.922;2023-04-19T13:59:24;13.60;25.70
3136;DHT22;1578;47.658;9.922;2023-04-19T14:01:50;13.60;28.50
3136;DHT22;1578;47.658;9.922;2023-04-19T14:04:16;13.90;28.50
3136;DHT22;1578;47.658;9.922;2023-04-19T14:06:42;13.90;26.80
3136;DHT22;1578;47.658;9.922;2023-04-19T14:09:08;13.60;24.60
3136;DHT22;1578;47.658;9.922;2023-04-19T14:11:33;13.30;30.00
3136;DHT22;1578;47.658;9.922;2023-04-19T14:13:59;13.00;27.70
3136;DHT22;1578;47.658;9.922;2023-04-19T14:16:24;12.90;27.90
3136;DHT22;1578;47.658;9.922;2023-04-19T14:18:50;12.90;29.80
3136;DHT22;1578;47.658;9.922;2023-04-19T14:21:16;12.80;28.40
3136;DHT22;1578;47.658;9.922;2023-04-19T14:23:42;12.80;31.50
3136;DHT22;1578;47.658;9.922;2023-04-19T14:26:08;12.90;30.20
3136;DHT22;1578;47.658;9.922;2023-04-19T14:28:33;12.90;30.00
3136;DHT22;1578;47.658;9.922;2023-04-19T14:30:59;12.80;31.60
3136;DHT22;1578;47.658;9.922;2023-04-19T14:33:24;12.50;31.30
3136;DHT22;1578;47.658;9.922;2023-04-19T14:35:51;12.50;32.80
3136;DHT22;1578;47.658;9.922;2023-04-19T14:38:16;12.40;30.70
3136;DHT22;1578;47.658;9.922;2023-04-19T14:40:42;12.30;32.20
3136;DHT22;1578;47.658;9.922;2023-04-19T14:43:10;12.20;34.60
3136;DHT22;1578;47.658;9.922;2023-04-19T14:45:35;12.30;33.10
3136;DHT22;1578;47.658;9.922;2023-04-19T14:48:01;12.10;31.50
3136;DHT22;1578;47.658;9.922;2023-04-19T14:50:27;12.20;34.20
3136;DHT22;1578;47.658;9.922;2023-04-19T14:52:52;12.10;37.60
3136;DHT22;1578;47.658;9.922;2023-04-19T14:55:19;12.20;33.40
3136;DHT22;1578;47.658;9.922;2023-04-19T14:57:44;12.20;36.40
3136;DHT22;1578;47.658;9.922;2023-04-19T15:00:11;12.30;37.60
3136;DHT22;1578;47.658;9.922;2023-04-19T15:02:37;12.30;39.10
3136;DHT22;1578;47.658;9.922;2023-04-19T15:05:03;12.30;34.30
3136;DHT22;1578;47.658;9.922;2023-04-19T15:07:28;12.30;31.30
3136;DHT22;1578;47.658;9.922;2023-04-19T15:09:55;12.20;31.30
3136;DHT22;1578;47.658;9.922;2023-04-19T15:12:21;12.10;33.90
3136;DHT22;1578;47.658;9.922;2023-04-19T15:14:46;11.80;35.80
3136;DHT22;1578;47.658;9.922;2023-04-19T15:17:12;11.60;34.20
3136;DHT22;1578;47.658;9.922;2023-04-19T15:19:38;11.40;37.00
3136;DHT22;1578;47.658;9.922;2023-04-19T15:22:04;11.40;38.30
3136;DHT22;1578;47.658;9.922;2023-04-19T15:24:33;11.30;43.00
3136;DHT22;1578;47.658;9.922;2023-04-19T15:26:59;11.30;40.60
3136;DHT22;1578;47.658;9.922;2023-04-19T15:29:25;11.10;42.70
3136;DHT22;1578;47.658;9.922;2023-04-19T15:31:51;11.00;44.90
3136;DHT22;1578;47.658;9.922;2023-04-19T15:34:17;10.90;46.70
3136;DHT22;1578;47.658;9.922;2023-04-19T15:36:42;10.60;50.60
3136;DHT22;1578;47.658;9.922;2023-04-19T15:39:08;10.30;55.00
3136;DHT22;1578;47.658;9.922;2023-04-19T15:41:34;10.10;62.20
3136;DHT22;1578;47.658;9.922;2023-04-19T15:43:59;9.60;69.00
3136;DHT22;1578;47.658;9.922;2023-04-19T15:46:25;9.50;76.30
3136;DHT22;1578;47.658;9.922;2023-04-19T15:48:51;9.30;78.70
3136;DHT22;1578;47.658;9.922;2023-04-19T15:51:16;9.00;83.30
3136;DHT22;1578;47.658;9.922;2023-04-19T15:53:42;9.10;90.90
3136;DHT22;1578;47.658;9.922;2023-04-19T15:56:09;9.00;89.40
3136;DHT22;1578;47.658;9.922;2023-04-19T15:58:35;9.00;89.10
3136;DHT22;1578;47.658;9.922;2023-04-19T16:01:00;9.00;90.30
3136;DHT22;1578;47.658;9.922;2023-04-19T16:03:27;9.00;92.00
3136;DHT22;1578;47.658;9.922;2023-04-19T16:05:53;9.10;92.30
3136;DHT22;1578;47.658;9.922;2023-04-19T16:08:19;8.90;89.00
3136;DHT22;1578;47.658;9.922;2023-04-19T16:10:46;8.90;90.00
3136;DHT22;1578;47.658;9.922;2023-04-19T16:13:12;8.90;88.30
3136;DHT22;1578;47.658;9.922;2023-04-19T16:15:42;8.90;91.00
3136;DHT22;1578;47.658;9.922;2023-04-19T16:18:07;8.70;90.90
3136;DHT22;1578;47.658;9.922;2023-04-19T16:20:33;8.70;92.40
3136;DHT22;1578;47.658;9.922;2023-04-19T16:22:59;8.70;91.60
3136;DHT22;1578;47.658;9.922;2023-04-19T16:25:29;8.50;91.00
3136;DHT22;1578;47.658;9.922;2023-04-19T16:27:55;8.50;91.80
3136;DHT22;1578;47.658;9.922;2023-04-19T16:30:20;8.50;91.20
3136;DHT22;1578;47.658;9.922;2023-04-19T16:32:48;8.40;91.70